createdAt,value
2023-02-28T00:01:30.815Z,99.90
2023-02-28T00:03:58.530Z,99.90
2023-02-28T00:06:26.609Z,99.90
2023-02-28T00:08:53.971Z,99.90
2023-02-28T00:11:21.490Z,99.90
2023-02-28T00:13:49.133Z,99.90
2023-02-28T00:16:22.709Z,99.90
2023-02-28T00:18:50.542Z,99.90
2023-02-28T00:21:19.534Z,99.90
2023-02-28T00:23:47.083Z,99.90
2023-02-28T00:26:14.506Z,99.90
2023-02-28T00:28:45.559Z,99.90
2023-02-28T00:31:12.990Z,99.90
2023-02-28T00:33:40.287Z,99.90
2023-02-28T00:36:10.563Z,99.90
2023-02-28T00:38:39.160Z,99.90
2023-02-28T00:41:07.237Z,99.90
2023-02-28T00:43:35.639Z,99.90
2023-02-28T00:46:03.516Z,99.90
2023-02-28T00:48:31.838Z,99.90
2023-02-28T00:50:59.137Z,99.90
2023-02-28T00:53:26.677Z,99.90
2023-02-28T00:55:54.005Z,99.90
2023-02-28T00:58:21.304Z,99.90
2023-02-28T01:00:49.859Z,99.90
2023-02-28T01:03:18.587Z,99.90
2023-02-28T01:05:47.137Z,99.90
2023-02-28T01:08:15.525Z,99.90
2023-02-28T01:10:43.366Z,99.90
2023-02-28T01:13:11.299Z,99.90
2023-02-28T01:15:41.777Z,99.90
2023-02-28T01:18:09.054Z,99.90
2023-02-28T01:20:38.435Z,99.90
2023-02-28T01:23:05.699Z,99.90
2023-02-28T01:25:38.820Z,99.90
2023-02-28T01:28:06.984Z,99.90
2023-02-28T01:30:35.347Z,99.90
2023-02-28T01:33:02.643Z,99.90
2023-02-28T01:35:32.724Z,99.90
2023-02-28T01:38:09.501Z,99.90
2023-02-28T01:40:43.183Z,99.90
2023-02-28T01:43:21.762Z,99.90
2023-02-28T01:45:49.165Z,99.90
2023-02-28T01:48:16.860Z,99.90
2023-02-28T01:50:48.151Z,99.90
2023-02-28T01:53:19.239Z,99.90
2023-02-28T01:55:50.547Z,99.90
2023-02-28T01:58:17.963Z,99.90
2023-02-28T02:00:45.450Z,99.90
2023-02-28T02:03:17.375Z,99.90
2023-02-28T02:05:48.504Z,99.90
2023-02-28T02:08:22.765Z,99.90
2023-02-28T02:10:54.866Z,99.90
2023-02-28T02:13:44.998Z,99.90
2023-02-28T02:16:41.553Z,99.90
2023-02-28T02:19:47.807Z,99.90
2023-02-28T02:22:59.365Z,99.90
2023-02-28T02:25:43.768Z,99.90
2023-02-28T02:28:33.002Z,99.90
2023-02-28T02:31:25.337Z,99.90
2023-02-28T02:34:17.270Z,99.90
2023-02-28T02:37:11.921Z,99.90
2023-02-28T02:39:39.116Z,99.90
2023-02-28T02:42:17.578Z,99.90
2023-02-28T02:44:54.886Z,99.90
2023-02-28T02:47:28.703Z,99.90
2023-02-28T02:49:59.422Z,99.90
2023-02-28T02:52:35.667Z,99.90
2023-02-28T02:55:07.680Z,99.90
2023-02-28T02:57:52.719Z,99.90
2023-02-28T03:00:26.179Z,99.90
2023-02-28T03:02:55.441Z,99.90
2023-02-28T03:05:36.772Z,99.90
2023-02-28T03:08:06.394Z,99.90
2023-02-28T03:10:38.522Z,99.90
2023-02-28T03:13:59.978Z,99.90
2023-02-28T03:16:47.698Z,99.90
2023-02-28T03:19:44.059Z,99.90
2023-02-28T03:22:51.974Z,99.90
2023-02-28T03:25:38.053Z,99.90
2023-02-28T03:28:08.103Z,99.90
2023-02-28T03:30:57.715Z,99.90
2023-02-28T03:33:33.218Z,99.90
2023-02-28T03:36:08.127Z,99.90
2023-02-28T03:38:42.017Z,99.90
2023-02-28T03:41:22.232Z,99.90
2023-02-28T03:44:03.956Z,99.90
2023-02-28T03:46:36.970Z,99.90
2023-02-28T03:49:44.550Z,99.90
2023-02-28T03:52:12.012Z,99.90
2023-02-28T03:54:51.052Z,99.90
2023-02-28T03:57:48.326Z,99.90
2023-02-28T04:00:29.322Z,99.90
2023-02-28T04:02:57.308Z,99.90
2023-02-28T04:05:25.734Z,99.90
2023-02-28T04:07:53.712Z,99.90
2023-02-28T04:10:21.258Z,99.90
2023-02-28T04:12:48.538Z,99.90
2023-02-28T04:15:15.934Z,99.90
2023-02-28T04:17:43.331Z,99.90
2023-02-28T04:20:11.362Z,99.90
2023-02-28T04:22:38.603Z,99.90
2023-02-28T04:25:06.771Z,99.90
2023-02-28T04:27:34.574Z,99.90
2023-02-28T04:30:01.827Z,99.90
2023-02-28T04:32:29.177Z,99.90
2023-02-28T04:34:56.531Z,99.90
2023-02-28T04:37:28.761Z,99.90
2023-02-28T04:39:56.031Z,99.90
2023-02-28T04:42:23.258Z,99.90
2023-02-28T04:44:50.596Z,99.90
2023-02-28T04:47:17.839Z,99.90
2023-02-28T04:49:45.128Z,99.90
2023-02-28T04:52:14.184Z,99.90
2023-02-28T04:54:41.586Z,99.90
2023-02-28T04:57:08.817Z,99.90
2023-02-28T04:59:36.123Z,99.90
2023-02-28T05:02:07.592Z,99.90
2023-02-28T05:04:35.673Z,99.90
2023-02-28T05:07:04.049Z,99.90
2023-02-28T05:09:31.347Z,99.90
2023-02-28T05:11:59.006Z,99.90
2023-02-28T05:14:26.481Z,99.90
2023-02-28T05:16:53.819Z,99.90
2023-02-28T05:19:22.276Z,99.90
2023-02-28T05:21:55.259Z,99.90
2023-02-28T05:24:25.281Z,99.90
2023-02-28T05:26:54.245Z,99.90
2023-02-28T05:29:22.080Z,99.90
2023-02-28T05:31:49.574Z,99.90
2023-02-28T05:34:17.080Z,99.90
2023-02-28T05:36:44.741Z,99.90
2023-02-28T05:39:13.718Z,99.90
2023-02-28T05:41:43.166Z,99.90
2023-02-28T05:44:11.290Z,99.90
2023-02-28T05:46:39.375Z,99.90
2023-02-28T05:49:06.753Z,99.90
2023-02-28T05:51:35.243Z,99.90
2023-02-28T05:54:03.204Z,99.90
2023-02-28T05:56:30.628Z,99.90
2023-02-28T05:58:58.050Z,99.90
2023-02-28T06:01:49.194Z,99.90
2023-02-28T06:04:31.146Z,99.90
2023-02-28T06:06:59.142Z,99.90
2023-02-28T06:09:26.350Z,99.90
2023-02-28T06:11:53.655Z,99.90
2023-02-28T06:14:21.482Z,99.90
2023-02-28T06:16:48.812Z,99.90
2023-02-28T06:19:16.416Z,99.90
2023-02-28T06:21:44.056Z,99.90
2023-02-28T06:24:11.886Z,99.90
2023-02-28T06:26:39.182Z,99.90
2023-02-28T06:29:06.490Z,99.90
2023-02-28T06:31:34.178Z,99.90
2023-02-28T06:34:01.715Z,99.90
2023-02-28T06:36:29.036Z,99.90
2023-02-28T06:38:57.032Z,99.90
2023-02-28T06:41:26.773Z,99.90
2023-02-28T06:43:54.952Z,99.90
2023-02-28T06:46:22.826Z,99.90
2023-02-28T06:48:50.694Z,99.90
2023-02-28T06:51:25.248Z,99.90
2023-02-28T06:53:52.450Z,99.90
2023-02-28T06:56:21.386Z,99.90
2023-02-28T06:58:51.563Z,99.90
2023-02-28T07:01:20.102Z,99.90
2023-02-28T07:03:53.317Z,99.90
2023-02-28T07:06:24.733Z,99.90
2023-02-28T07:08:53.956Z,99.90
2023-02-28T07:11:23.573Z,99.90
2023-02-28T07:13:51.877Z,99.90
2023-02-28T07:16:19.502Z,99.90
2023-02-28T07:18:46.821Z,99.90
2023-02-28T07:21:14.507Z,99.90
2023-02-28T07:23:42.495Z,96.80
2023-02-28T07:26:16.602Z,95.50
2023-02-28T07:28:45.343Z,94.80
2023-02-28T07:31:14.885Z,96.50
2023-02-28T07:33:43.076Z,96.20
2023-02-28T07:36:16.185Z,98.70
2023-02-28T07:38:48.276Z,99.90
2023-02-28T07:41:17.600Z,99.90
2023-02-28T07:43:45.611Z,99.90
2023-02-28T07:46:18.147Z,99.90
2023-02-28T07:48:45.832Z,99.90
2023-02-28T07:51:13.783Z,99.90
2023-02-28T07:53:41.948Z,99.90
2023-02-28T07:56:09.317Z,99.90
2023-02-28T07:58:36.676Z,99.90
2023-02-28T08:01:09.465Z,99.90
2023-02-28T08:03:37.798Z,99.80
2023-02-28T08:06:06.796Z,90.40
2023-02-28T08:08:34.525Z,79.90
2023-02-28T08:11:03.852Z,75.30
2023-02-28T08:13:31.518Z,76.80
2023-02-28T08:15:58.884Z,78.20
2023-02-28T08:18:26.311Z,81.60
2023-02-28T08:20:53.598Z,86.20
2023-02-28T08:23:20.846Z,85.50
2023-02-28T08:25:57.158Z,79.50
2023-02-28T08:28:27.090Z,75.00
2023-02-28T08:30:56.179Z,69.00
2023-02-28T08:33:24.494Z,61.60
2023-02-28T08:35:58.144Z,53.90
2023-02-28T08:38:25.692Z,45.30
2023-02-28T08:40:59.725Z,41.30
2023-02-28T08:43:27.168Z,38.60
2023-02-28T08:45:57.731Z,36.70
2023-02-28T08:48:26.861Z,34.50
2023-02-28T08:51:08.276Z,33.60
2023-02-28T08:53:40.680Z,31.80
2023-02-28T08:56:14.006Z,31.10
2023-02-28T08:58:41.788Z,28.20
2023-02-28T09:01:20.278Z,27.80
2023-02-28T09:03:49.224Z,27.60
2023-02-28T09:06:19.001Z,26.20
2023-02-28T09:08:46.634Z,26.00
2023-02-28T09:11:14.167Z,25.40
2023-02-28T09:13:41.648Z,25.60
2023-02-28T09:16:12.482Z,24.10
2023-02-28T09:18:40.323Z,23.50
2023-02-28T09:21:09.355Z,21.70
2023-02-28T09:23:39.153Z,23.00
2023-02-28T09:26:07.265Z,22.50
2023-02-28T09:28:34.873Z,21.70
2023-02-28T09:31:02.185Z,20.50
2023-02-28T09:33:29.561Z,20.20
2023-02-28T09:36:02.151Z,20.90
2023-02-28T09:38:29.524Z,19.40
2023-02-28T09:41:02.853Z,18.90
2023-02-28T09:43:36.723Z,19.50
2023-02-28T09:46:15.508Z,18.50
2023-02-28T09:48:46.670Z,17.60
2023-02-28T09:51:37.075Z,18.50
2023-02-28T09:54:04.673Z,15.50
2023-02-28T09:56:42.289Z,16.60
2023-02-28T09:59:31.468Z,17.00
2023-02-28T10:02:21.885Z,18.50
2023-02-28T10:05:01.620Z,17.60
2023-02-28T10:07:58.419Z,17.40
2023-02-28T10:10:41.369Z,17.70
2023-02-28T10:13:20.248Z,16.50
2023-02-28T10:15:51.341Z,18.60
2023-02-28T10:18:25.559Z,18.50
2023-02-28T10:20:54.091Z,16.80
2023-02-28T10:23:35.866Z,16.20
2023-02-28T10:26:18.432Z,16.50
2023-02-28T10:28:46.232Z,19.00
2023-02-28T10:31:19.690Z,17.70
2023-02-28T10:33:47.960Z,19.20
2023-02-28T10:36:18.064Z,19.70
2023-02-28T10:38:46.797Z,20.80
2023-02-28T10:41:17.376Z,22.90
2023-02-28T10:43:48.325Z,22.10
2023-02-28T10:46:26.828Z,21.30
2023-02-28T10:49:07.254Z,21.50
2023-02-28T10:51:39.843Z,23.10
2023-02-28T10:54:16.990Z,24.10
2023-02-28T10:56:44.347Z,23.60
2023-02-28T10:59:31.980Z,24.20
2023-02-28T11:01:59.959Z,23.80
2023-02-28T11:04:30.518Z,23.20
2023-02-28T11:07:04.193Z,24.90
2023-02-28T11:09:59.084Z,25.90
2023-02-28T11:12:47.311Z,26.70
2023-02-28T11:15:27.333Z,27.90
2023-02-28T11:18:14.185Z,28.70
2023-02-28T11:20:41.868Z,29.40
2023-02-28T11:23:14.578Z,30.90
2023-02-28T11:25:52.089Z,30.90
2023-02-28T11:28:32.324Z,30.60
2023-02-28T11:31:14.872Z,31.00
2023-02-28T11:33:51.179Z,30.80
2023-02-28T11:36:25.639Z,30.20
2023-02-28T11:38:55.272Z,30.80
2023-02-28T11:41:31.848Z,30.80
2023-02-28T11:44:28.800Z,32.20
2023-02-28T11:47:23.004Z,31.30
2023-02-28T11:50:16.032Z,32.10
2023-02-28T11:53:01.944Z,32.60
2023-02-28T11:55:42.326Z,32.90
2023-02-28T11:58:34.088Z,33.50
2023-02-28T12:01:13.363Z,34.90
2023-02-28T12:03:45.669Z,36.20
2023-02-28T12:06:12.912Z,36.60
2023-02-28T12:08:42.904Z,37.60
2023-02-28T12:11:37.803Z,39.10
2023-02-28T12:14:47.710Z,37.90
2023-02-28T12:17:45.718Z,36.80
2023-02-28T12:20:35.179Z,36.30
2023-02-28T12:23:24.112Z,36.70
2023-02-28T12:25:56.803Z,37.40
2023-02-28T12:28:29.063Z,37.50
2023-02-28T12:31:14.578Z,35.30
2023-02-28T12:33:53.352Z,37.30
2023-02-28T12:36:23.146Z,38.10
2023-02-28T12:39:03.796Z,36.90
2023-02-28T12:41:37.096Z,36.00
2023-02-28T12:44:29.393Z,36.50
2023-02-28T12:47:01.591Z,35.80
2023-02-28T12:49:51.352Z,36.60
2023-02-28T12:52:34.200Z,38.20
2023-02-28T12:55:14.356Z,37.90
2023-02-28T12:57:51.058Z,37.50
2023-02-28T13:00:23.852Z,38.90
2023-02-28T13:03:12.048Z,38.80
2023-02-28T13:06:16.312Z,40.10
2023-02-28T13:09:03.254Z,38.60
2023-02-28T13:11:32.966Z,37.70
2023-02-28T13:14:03.224Z,38.80
2023-02-28T13:17:00.257Z,40.00
2023-02-28T13:19:33.350Z,41.30
2023-02-28T13:22:01.658Z,39.20
2023-02-28T13:24:40.425Z,38.30
2023-02-28T13:27:09.477Z,40.00
2023-02-28T13:29:41.359Z,38.50
2023-02-28T13:32:09.221Z,39.80
2023-02-28T13:34:37.832Z,38.30
2023-02-28T13:37:23.966Z,38.50
2023-02-28T13:39:56.556Z,38.10
2023-02-28T13:42:23.947Z,39.50
2023-02-28T13:45:03.638Z,39.80
2023-02-28T13:47:34.844Z,40.50
2023-02-28T13:50:23.416Z,40.40
2023-02-28T13:53:22.828Z,39.80
2023-02-28T13:56:02.849Z,40.00
2023-02-28T13:58:43.526Z,40.60
2023-02-28T14:01:23.080Z,41.40
2023-02-28T14:04:15.464Z,40.60
2023-02-28T14:06:56.583Z,42.20
2023-02-28T14:09:28.202Z,41.30
2023-02-28T14:11:56.285Z,41.10
2023-02-28T14:14:35.840Z,41.20
2023-02-28T14:17:05.349Z,41.20
2023-02-28T14:19:36.036Z,43.00
2023-02-28T14:22:21.994Z,42.60
2023-02-28T14:25:04.453Z,42.80
2023-02-28T14:27:51.252Z,42.30
2023-02-28T14:30:42.289Z,42.30
2023-02-28T14:33:35.985Z,43.00
2023-02-28T14:36:17.012Z,43.20
2023-02-28T14:38:55.962Z,43.70
2023-02-28T14:41:36.456Z,45.00
2023-02-28T14:44:21.601Z,43.10
2023-02-28T14:46:54.038Z,45.20
2023-02-28T14:49:33.448Z,45.40
2023-02-28T14:52:07.553Z,45.30
2023-02-28T14:54:35.524Z,46.00
2023-02-28T14:57:03.013Z,47.30
2023-02-28T14:59:33.296Z,47.70
2023-02-28T15:02:19.391Z,47.60
2023-02-28T15:04:58.469Z,47.80
2023-02-28T15:07:29.645Z,48.50
2023-02-28T15:10:15.845Z,49.90
2023-02-28T15:12:53.109Z,48.00
2023-02-28T15:15:28.063Z,48.50
2023-02-28T15:18:06.894Z,50.10
2023-02-28T15:20:36.326Z,51.70
2023-02-28T15:23:04.023Z,52.60
2023-02-28T15:25:32.593Z,51.40
2023-02-28T15:28:00.140Z,51.10
2023-02-28T15:30:30.493Z,52.00
2023-02-28T15:33:09.238Z,51.30
2023-02-28T15:35:36.700Z,52.00
2023-02-28T15:38:17.661Z,50.80
2023-02-28T15:40:54.387Z,51.20
2023-02-28T15:43:33.130Z,52.40
2023-02-28T15:46:03.373Z,54.20
2023-02-28T15:48:35.156Z,55.00
2023-02-28T15:51:10.307Z,55.80
2023-02-28T15:53:51.438Z,57.10
2023-02-28T15:56:33.862Z,58.30
2023-02-28T15:59:04.315Z,59.30
2023-02-28T16:01:37.452Z,59.80
2023-02-28T16:04:12.797Z,62.20
2023-02-28T16:06:45.338Z,61.60
2023-02-28T16:09:15.864Z,60.00
2023-02-28T16:11:49.585Z,61.40
2023-02-28T16:14:20.572Z,61.70
2023-02-28T16:16:51.505Z,61.90
2023-02-28T16:19:20.183Z,63.90
2023-02-28T16:21:48.331Z,66.60
2023-02-28T16:24:15.933Z,69.70
2023-02-28T16:26:47.121Z,72.70
2023-02-28T16:29:22.066Z,76.20
2023-02-28T16:31:49.611Z,78.50
2023-02-28T16:34:17.189Z,77.60
2023-02-28T16:36:50.122Z,79.00
2023-02-28T16:39:17.631Z,78.00
2023-02-28T16:41:46.717Z,81.20
2023-02-28T16:44:25.519Z,82.60
2023-02-28T16:46:52.801Z,83.50
2023-02-28T16:49:20.148Z,86.70
2023-02-28T16:51:47.686Z,90.30
2023-02-28T16:54:17.612Z,90.90
2023-02-28T16:56:48.853Z,92.20
2023-02-28T16:59:22.230Z,93.70
2023-02-28T17:01:50.437Z,93.80
2023-02-28T17:04:17.899Z,94.80
2023-02-28T17:06:45.329Z,94.80
2023-02-28T17:09:21.014Z,97.20
2023-02-28T17:11:49.704Z,99.00
2023-02-28T17:14:17.367Z,99.90
2023-02-28T17:16:44.926Z,99.70
2023-02-28T17:19:15.247Z,99.90
2023-02-28T17:21:43.325Z,99.90
2023-02-28T17:24:22.138Z,99.90
2023-02-28T17:26:57.273Z,99.90
2023-02-28T17:29:25.352Z,99.90
2023-02-28T17:31:52.993Z,99.90
2023-02-28T17:34:20.695Z,99.90
2023-02-28T17:36:50.345Z,99.90
2023-02-28T17:39:25.415Z,99.90
2023-02-28T17:41:54.375Z,99.90
2023-02-28T17:44:23.203Z,99.90
2023-02-28T17:46:51.179Z,99.90
2023-02-28T17:49:19.696Z,99.90
2023-02-28T17:51:47.523Z,99.90
2023-02-28T17:54:15.171Z,99.90
2023-02-28T17:56:44.075Z,99.90
2023-02-28T17:59:12.573Z,99.90
2023-02-28T18:01:40.161Z,99.90
2023-02-28T18:04:07.616Z,99.90
2023-02-28T18:06:48.085Z,99.90
2023-02-28T18:09:23.013Z,99.90
2023-02-28T18:11:51.704Z,99.90
2023-02-28T18:14:24.977Z,99.90
2023-02-28T18:16:53.938Z,99.90
2023-02-28T18:19:21.678Z,99.90
2023-02-28T18:21:51.528Z,99.90
2023-02-28T18:24:20.443Z,99.90
2023-02-28T18:26:47.795Z,99.90
2023-02-28T18:29:24.521Z,99.90
2023-02-28T18:31:52.555Z,99.90
2023-02-28T18:34:21.175Z,99.90
2023-02-28T18:36:50.876Z,99.90
2023-02-28T18:39:19.367Z,99.90
2023-02-28T18:41:47.055Z,99.90
2023-02-28T18:44:22.712Z,99.90
2023-02-28T18:46:50.374Z,99.90
2023-02-28T18:49:18.660Z,99.90
2023-02-28T18:51:46.740Z,99.90
2023-02-28T18:54:15.708Z,99.90
2023-02-28T18:56:43.395Z,99.90
2023-02-28T18:59:11.270Z,99.90
2023-02-28T19:01:39.081Z,99.90
2023-02-28T19:04:06.560Z,99.90
2023-02-28T19:06:35.088Z,99.90
2023-02-28T19:09:03.857Z,99.90
2023-02-28T19:11:32.185Z,99.90
2023-02-28T19:13:59.509Z,99.90
2023-02-28T19:16:30.918Z,99.90
2023-02-28T19:18:58.559Z,99.90
2023-02-28T19:21:26.179Z,99.90
2023-02-28T19:23:53.873Z,99.90
2023-02-28T19:26:23.795Z,99.90
2023-02-28T19:28:51.427Z,99.90
2023-02-28T19:31:22.357Z,99.90
2023-02-28T19:33:52.693Z,99.90
2023-02-28T19:36:20.910Z,99.90
2023-02-28T19:38:48.784Z,99.90
2023-02-28T19:41:17.650Z,99.90
2023-02-28T19:43:45.743Z,99.90
2023-02-28T19:46:13.732Z,99.90
2023-02-28T19:48:42.711Z,99.90
2023-02-28T19:51:12.396Z,99.90
2023-02-28T19:53:41.471Z,99.90
2023-02-28T19:56:09.176Z,99.90
2023-02-28T19:58:36.958Z,99.90
2023-02-28T20:01:09.853Z,99.90
2023-02-28T20:03:37.174Z,99.90
2023-02-28T20:06:07.936Z,99.90
2023-02-28T20:08:35.756Z,99.90
2023-02-28T20:11:09.283Z,99.90
2023-02-28T20:13:37.107Z,99.90
2023-02-28T20:16:07.019Z,99.90
2023-02-28T20:18:34.542Z,99.90
2023-02-28T20:21:02.031Z,99.90
2023-02-28T20:23:29.655Z,99.90
2023-02-28T20:26:00.747Z,99.90
2023-02-28T20:28:28.047Z,99.90
2023-02-28T20:30:55.901Z,99.90
2023-02-28T20:33:23.747Z,99.90
2023-02-28T20:35:58.726Z,99.90
2023-02-28T20:38:26.007Z,99.90
2023-02-28T20:40:59.055Z,99.90
2023-02-28T20:43:26.711Z,99.90
2023-02-28T20:45:56.767Z,99.90
2023-02-28T20:48:25.357Z,99.90
2023-02-28T20:50:54.687Z,99.90
2023-02-28T20:53:24.084Z,99.90
2023-02-28T20:56:13.955Z,99.90
2023-02-28T20:58:42.057Z,99.90
2023-02-28T21:01:18.517Z,99.90
2023-02-28T21:03:53.773Z,99.90
2023-02-28T21:06:23.054Z,99.90
2023-02-28T21:08:50.969Z,99.90
2023-02-28T21:11:23.686Z,99.90
2023-02-28T21:13:51.890Z,99.90
2023-02-28T21:16:23.284Z,99.90
2023-02-28T21:18:52.730Z,99.90
2023-02-28T21:21:24.751Z,99.90
2023-02-28T21:23:52.642Z,99.90
2023-02-28T21:26:22.367Z,99.90
2023-02-28T21:28:55.389Z,99.90
2023-02-28T21:31:24.824Z,99.90
2023-02-28T21:33:56.454Z,99.90
2023-02-28T21:36:27.223Z,99.90
2023-02-28T21:39:04.716Z,99.90
2023-02-28T21:41:31.965Z,99.90
2023-02-28T21:43:59.254Z,99.90
2023-02-28T21:46:29.348Z,99.90
2023-02-28T21:48:57.903Z,99.90
2023-02-28T21:51:28.381Z,99.90
2023-02-28T21:53:57.853Z,99.90
2023-02-28T21:56:29.904Z,99.90
2023-02-28T21:59:01.494Z,99.90
2023-02-28T22:01:38.298Z,99.90
2023-02-28T22:04:08.561Z,99.90
2023-02-28T22:06:39.394Z,99.90
2023-02-28T22:09:09.409Z,99.90
2023-02-28T22:11:38.204Z,99.90
2023-02-28T22:14:06.802Z,99.90
2023-02-28T22:16:49.539Z,99.90
2023-02-28T22:19:18.580Z,99.90
2023-02-28T22:21:47.388Z,99.90
2023-02-28T22:24:15.730Z,99.90
2023-02-28T22:26:43.072Z,99.90
2023-02-28T22:29:10.493Z,99.90
2023-02-28T22:31:37.911Z,99.90
2023-02-28T22:34:08.708Z,99.90
2023-02-28T22:36:36.834Z,99.90
2023-02-28T22:39:05.266Z,99.90
2023-02-28T22:41:33.135Z,99.90
2023-02-28T22:44:02.572Z,99.90
2023-02-28T22:46:32.377Z,99.90
2023-02-28T22:49:01.195Z,99.90
2023-02-28T22:51:29.419Z,99.90
2023-02-28T22:53:58.226Z,99.90
2023-02-28T22:56:28.130Z,99.90
2023-02-28T22:58:57.765Z,99.90
2023-02-28T23:01:27.153Z,99.90
2023-02-28T23:03:54.953Z,99.90
2023-02-28T23:06:25.360Z,99.90
2023-02-28T23:08:55.523Z,99.90
2023-02-28T23:11:26.344Z,99.90
2023-02-28T23:14:00.003Z,99.90
2023-02-28T23:16:37.399Z,99.90
2023-02-28T23:19:07.952Z,99.90
2023-02-28T23:21:35.407Z,99.90
2023-02-28T23:24:04.852Z,99.90
2023-02-28T23:26:33.153Z,99.90
2023-02-28T23:29:01.135Z,99.90
2023-02-28T23:31:28.548Z,99.90
2023-02-28T23:33:56.921Z,99.90
2023-02-28T23:36:24.375Z,99.90
2023-02-28T23:38:52.761Z,99.90
2023-02-28T23:41:21.997Z,99.90
2023-02-28T23:43:51.114Z,99.90
2023-02-28T23:46:19.225Z,99.90
2023-02-28T23:48:46.675Z,99.90
2023-02-28T23:51:17.037Z,99.90
2023-02-28T23:53:47.163Z,99.90
2023-02-28T23:56:25.282Z,99.90
2023-02-28T23:58:54.235Z,99.90
